sensor_id;sensor_type;location;lat;lon;timestamp;temperature;humidity
26408;DHT22;14583;43.604;1.364;2023-02-13T00:01:39;7.40;99.90
26408;DHT22;14583;43.604;1.364;2023-02-13T00:04:04;7.20;99.90
26408;DHT22;14583;43.604;1.364;2023-02-13T00:06:30;7.10;99.90
26408;DHT22;14583;43.604;1.364;2023-02-13T00:08:56;7.10;99.90
26408;DHT22;14583;43.604;1.364;2023-02-13T00:11:21;7.00;99.90
26408;DHT22;14583;43.604;1.364;2023-02-13T00:13:47;7.00;99.90
26408;DHT22;14583;43.604;1.364;2023-02-13T00:16:13;6.90;99.90
26408;DHT22;14583;43.604;1.364;2023-02-13T00:18:38;6.80;99.90
26408;DHT22;14583;43.604;1.364;2023-02-13T00:21:07;6.90;99.90
26408;DHT22;14583;43.604;1.364;2023-02-13T00:23:34;6.80;99.90
26408;DHT22;14583;43.604;1.364;2023-02-13T00:26:07;6.80;99.90
26408;DHT22;14583;43.604;1.364;2023-02-13T00:28:33;6.70;99.90
26408;DHT22;14583;43.604;1.364;2023-02-13T00:31:03;6.70;99.90
26408;DHT22;14583;43.604;1.364;2023-02-13T00:33:29;6.70;99.90
26408;DHT22;14583;43.604;1.364;2023-02-13T00:36:08;6.60;99.90
26408;DHT22;14583;43.604;1.364;2023-02-13T00:38:35;6.70;99.90
26408;DHT22;14583;43.604;1.364;2023-02-13T00:41:01;6.60;99.90
26408;DHT22;14583;43.604;1.364;2023-02-13T00:43:27;6.70;99.90
26408;DHT22;14583;43.604;1.364;2023-02-13T00:45:53;6.60;99.90
26408;DHT22;14583;43.604;1.364;2023-02-13T00:48:19;6.60;99.90
26408;DHT22;14583;43.604;1.364;2023-02-13T00:50:46;6.60;99.90
26408;DHT22;14583;43.604;1.364;2023-02-13T00:53:12;6.50;99.90
26408;DHT22;14583;43.604;1.364;2023-02-13T00:55:37;6.40;99.90
26408;DHT22;14583;43.604;1.364;2023-02-13T00:58:03;6.50;99.90
26408;DHT22;14583;43.604;1.364;2023-02-13T01:00:29;6.50;99.90
26408;DHT22;14583;43.604;1.364;2023-02-13T01:02:55;6.50;99.90
26408;DHT22;14583;43.604;1.364;2023-02-13T01:05:20;6.30;99.90
26408;DHT22;14583;43.604;1.364;2023-02-13T01:07:46;6.20;99.90
26408;DHT22;14583;43.604;1.364;2023-02-13T01:10:12;6.30;99.90
26408;DHT22;14583;43.604;1.364;2023-02-13T01:12:37;6.20;99.90
26408;DHT22;14583;43.604;1.364;2023-02-13T01:15:04;6.30;99.90
26408;DHT22;14583;43.604;1.364;2023-02-13T01:17:30;6.30;99.90
26408;DHT22;14583;43.604;1.364;2023-02-13T01:19:55;6.30;99.90
26408;DHT22;14583;43.604;1.364;2023-02-13T01:22:21;6.20;99.90
26408;DHT22;14583;43.604;1.364;2023-02-13T01:24:47;6.10;99.90
26408;DHT22;14583;43.604;1.364;2023-02-13T01:27:12;6.10;99.90
26408;DHT22;14583;43.604;1.364;2023-02-13T01:29:38;6.00;99.90
26408;DHT22;14583;43.604;1.364;2023-02-13T01:32:04;5.90;99.90
26408;DHT22;14583;43.604;1.364;2023-02-13T01:34:33;6.00;99.90
26408;DHT22;14583;43.604;1.364;2023-02-13T01:36:59;6.00;99.90
26408;DHT22;14583;43.604;1.364;2023-02-13T01:39:25;6.00;99.90
26408;DHT22;14583;43.604;1.364;2023-02-13T01:41:51;6.00;99.90
26408;DHT22;14583;43.604;1.364;2023-02-13T01:44:45;5.90;99.90
26408;DHT22;14583;43.604;1.364;2023-02-13T01:47:13;5.80;99.90
26408;DHT22;14583;43.604;1.364;2023-02-13T01:49:40;5.80;99.90
26408;DHT22;14583;43.604;1.364;2023-02-13T01:52:09;5.90;99.90
26408;DHT22;14583;43.604;1.364;2023-02-13T01:54:35;5.80;99.90
26408;DHT22;14583;43.604;1.364;2023-02-13T01:57:12;5.80;99.90
26408;DHT22;14583;43.604;1.364;2023-02-13T01:59:52;5.70;99.90
26408;DHT22;14583;43.604;1.364;2023-02-13T02:02:20;5.60;99.90
26408;DHT22;14583;43.604;1.364;2023-02-13T02:04:47;5.70;99.90
26408;DHT22;14583;43.604;1.364;2023-02-13T02:07:18;5.70;99.90
26408;DHT22;14583;43.604;1.364;2023-02-13T02:09:45;5.70;99.90
26408;DHT22;14583;43.604;1.364;2023-02-13T02:14:48;5.70;99.90
26408;DHT22;14583;43.604;1.364;2023-02-13T02:17:14;5.70;99.90
26408;DHT22;14583;43.604;1.364;2023-02-13T02:35:33;5.40;99.90
26408;DHT22;14583;43.604;1.364;2023-02-13T02:38:37;5.30;99.90
26408;DHT22;14583;43.604;1.364;2023-02-13T02:50:22;5.30;99.90
26408;DHT22;14583;43.604;1.364;2023-02-13T02:52:56;5.50;99.90
26408;DHT22;14583;43.604;1.364;2023-02-13T02:58:10;5.50;99.90
26408;DHT22;14583;43.604;1.364;2023-02-13T03:00:58;5.50;99.90
26408;DHT22;14583;43.604;1.364;2023-02-13T03:03:45;5.40;99.90
26408;DHT22;14583;43.604;1.364;2023-02-13T03:06:42;5.50;99.90
26408;DHT22;14583;43.604;1.364;2023-02-13T03:09:13;5.50;99.90
26408;DHT22;14583;43.604;1.364;2023-02-13T03:11:59;5.40;99.90
26408;DHT22;14583;43.604;1.364;2023-02-13T03:14:44;5.50;99.90
26408;DHT22;14583;43.604;1.364;2023-02-13T03:17:13;5.50;99.90
26408;DHT22;14583;43.604;1.364;2023-02-13T03:25:30;5.40;99.90
26408;DHT22;14583;43.604;1.364;2023-02-13T03:39:17;5.40;99.90
26408;DHT22;14583;43.604;1.364;2023-02-13T03:41:59;5.40;99.90
26408;DHT22;14583;43.604;1.364;2023-02-13T03:44:47;5.30;99.90
26408;DHT22;14583;43.604;1.364;2023-02-13T03:47:35;5.30;99.90
26408;DHT22;14583;43.604;1.364;2023-02-13T03:50:02;5.20;99.90
26408;DHT22;14583;43.604;1.364;2023-02-13T03:55:18;5.10;99.90
26408;DHT22;14583;43.604;1.364;2023-02-13T03:58:12;5.00;99.90
26408;DHT22;14583;43.604;1.364;2023-02-13T04:00:59;4.90;99.90
26408;DHT22;14583;43.604;1.364;2023-02-13T04:03:50;4.90;99.90
26408;DHT22;14583;43.604;1.364;2023-02-13T04:06:31;4.90;99.90
26408;DHT22;14583;43.604;1.364;2023-02-13T04:08:59;4.90;99.90
26408;DHT22;14583;43.604;1.364;2023-02-13T04:11:36;4.90;99.90
26408;DHT22;14583;43.604;1.364;2023-02-13T04:14:12;4.90;99.90
26408;DHT22;14583;43.604;1.364;2023-02-13T04:16:42;4.90;99.90
26408;DHT22;14583;43.604;1.364;2023-02-13T04:19:10;4.80;99.90
26408;DHT22;14583;43.604;1.364;2023-02-13T04:21:37;4.70;99.90
26408;DHT22;14583;43.604;1.364;2023-02-13T04:24:05;4.70;99.90
26408;DHT22;14583;43.604;1.364;2023-02-13T04:26:41;4.80;99.90
26408;DHT22;14583;43.604;1.364;2023-02-13T04:29:08;4.80;99.90
26408;DHT22;14583;43.604;1.364;2023-02-13T04:31:34;4.70;99.90
26408;DHT22;14583;43.604;1.364;2023-02-13T04:33:59;4.70;99.90
26408;DHT22;14583;43.604;1.364;2023-02-13T04:36:25;4.70;99.90
26408;DHT22;14583;43.604;1.364;2023-02-13T04:38:51;4.70;99.90
26408;DHT22;14583;43.604;1.364;2023-02-13T04:41:17;4.60;99.90
26408;DHT22;14583;43.604;1.364;2023-02-13T04:43:44;4.60;99.90
26408;DHT22;14583;43.604;1.364;2023-02-13T04:46:10;4.50;99.90
26408;DHT22;14583;43.604;1.364;2023-02-13T04:48:35;4.50;99.90
26408;DHT22;14583;43.604;1.364;2023-02-13T04:51:01;4.50;99.90
26408;DHT22;14583;43.604;1.364;2023-02-13T04:53:27;4.40;99.90
26408;DHT22;14583;43.604;1.364;2023-02-13T04:55:52;4.40;99.90
26408;DHT22;14583;43.604;1.364;2023-02-13T04:58:18;4.40;99.90
26408;DHT22;14583;43.604;1.364;2023-02-13T05:00:44;4.40;99.90
26408;DHT22;14583;43.604;1.364;2023-02-13T05:03:11;4.20;99.90
26408;DHT22;14583;43.604;1.364;2023-02-13T05:05:38;4.20;99.90
26408;DHT22;14583;43.604;1.364;2023-02-13T05:08:05;4.20;99.90
26408;DHT22;14583;43.604;1.364;2023-02-13T05:10:31;4.20;99.90
26408;DHT22;14583;43.604;1.364;2023-02-13T05:12:56;4.10;99.90
26408;DHT22;14583;43.604;1.364;2023-02-13T05:15:22;4.20;99.90
26408;DHT22;14583;43.604;1.364;2023-02-13T05:17:48;4.20;99.90
26408;DHT22;14583;43.604;1.364;2023-02-13T05:20:15;4.20;99.90
26408;DHT22;14583;43.604;1.364;2023-02-13T05:22:47;4.10;99.90
26408;DHT22;14583;43.604;1.364;2023-02-13T05:25:33;4.10;99.90
26408;DHT22;14583;43.604;1.364;2023-02-13T05:27:59;4.10;99.90
26408;DHT22;14583;43.604;1.364;2023-02-13T05:30:25;4.00;99.90
26408;DHT22;14583;43.604;1.364;2023-02-13T05:32:51;4.00;99.90
26408;DHT22;14583;43.604;1.364;2023-02-13T05:35:26;4.00;99.90
26408;DHT22;14583;43.604;1.364;2023-02-13T05:37:52;4.00;99.90
26408;DHT22;14583;43.604;1.364;2023-02-13T05:40:17;4.00;99.90
26408;DHT22;14583;43.604;1.364;2023-02-13T05:42:43;4.00;99.90
26408;DHT22;14583;43.604;1.364;2023-02-13T05:45:09;4.00;99.90
26408;DHT22;14583;43.604;1.364;2023-02-13T05:47:35;4.10;99.90
26408;DHT22;14583;43.604;1.364;2023-02-13T05:50:01;4.00;99.90
26408;DHT22;14583;43.604;1.364;2023-02-13T05:52:27;4.00;99.90
26408;DHT22;14583;43.604;1.364;2023-02-13T05:54:52;4.00;99.90
26408;DHT22;14583;43.604;1.364;2023-02-13T05:57:18;3.90;99.90
26408;DHT22;14583;43.604;1.364;2023-02-13T05:59:44;4.00;99.90
26408;DHT22;14583;43.604;1.364;2023-02-13T06:02:09;4.00;99.90
26408;DHT22;14583;43.604;1.364;2023-02-13T06:04:35;4.00;99.90
26408;DHT22;14583;43.604;1.364;2023-02-13T06:07:01;4.00;99.90
26408;DHT22;14583;43.604;1.364;2023-02-13T06:09:27;3.90;99.90
26408;DHT22;14583;43.604;1.364;2023-02-13T06:11:53;3.90;99.90
26408;DHT22;14583;43.604;1.364;2023-02-13T06:14:18;3.90;99.90
26408;DHT22;14583;43.604;1.364;2023-02-13T06:16:44;4.10;99.90
26408;DHT22;14583;43.604;1.364;2023-02-13T06:19:10;4.00;99.90
26408;DHT22;14583;43.604;1.364;2023-02-13T06:21:35;4.00;99.90
26408;DHT22;14583;43.604;1.364;2023-02-13T06:24:07;4.00;99.90
26408;DHT22;14583;43.604;1.364;2023-02-13T06:26:33;4.00;99.90
26408;DHT22;14583;43.604;1.364;2023-02-13T06:28:59;4.00;99.90
26408;DHT22;14583;43.604;1.364;2023-02-13T06:31:25;4.00;99.90
26408;DHT22;14583;43.604;1.364;2023-02-13T06:33:50;3.90;99.90
26408;DHT22;14583;43.604;1.364;2023-02-13T06:36:16;4.10;99.90
26408;DHT22;14583;43.604;1.364;2023-02-13T06:38:42;4.00;99.90
26408;DHT22;14583;43.604;1.364;2023-02-13T06:41:08;4.10;99.90
26408;DHT22;14583;43.604;1.364;2023-02-13T06:43:34;4.00;99.90
26408;DHT22;14583;43.604;1.364;2023-02-13T06:46:04;3.80;99.90
26408;DHT22;14583;43.604;1.364;2023-02-13T06:48:30;3.70;99.90
26408;DHT22;14583;43.604;1.364;2023-02-13T06:50:56;3.70;99.90
26408;DHT22;14583;43.604;1.364;2023-02-13T06:53:21;3.70;99.90
26408;DHT22;14583;43.604;1.364;2023-02-13T06:55:51;3.80;99.90
26408;DHT22;14583;43.604;1.364;2023-02-13T06:58:18;3.70;99.90
26408;DHT22;14583;43.604;1.364;2023-02-13T07:00:44;3.80;99.90
26408;DHT22;14583;43.604;1.364;2023-02-13T07:03:09;3.80;99.90
26408;DHT22;14583;43.604;1.364;2023-02-13T07:05:39;3.70;99.90
26408;DHT22;14583;43.604;1.364;2023-02-13T07:08:05;3.60;99.90
26408;DHT22;14583;43.604;1.364;2023-02-13T07:10:31;3.60;99.90
26408;DHT22;14583;43.604;1.364;2023-02-13T07:12:56;3.60;99.90
26408;DHT22;14583;43.604;1.364;2023-02-13T07:15:22;3.50;99.90
26408;DHT22;14583;43.604;1.364;2023-02-13T07:17:53;3.60;99.90
26408;DHT22;14583;43.604;1.364;2023-02-13T07:20:19;3.70;99.90
26408;DHT22;14583;43.604;1.364;2023-02-13T07:22:45;3.70;99.90
26408;DHT22;14583;43.604;1.364;2023-02-13T07:25:10;3.60;99.90
26408;DHT22;14583;43.604;1.364;2023-02-13T07:27:36;3.60;99.90
26408;DHT22;14583;43.604;1.364;2023-02-13T07:30:02;3.50;99.90
26408;DHT22;14583;43.604;1.364;2023-02-13T07:32:28;3.40;99.90
26408;DHT22;14583;43.604;1.364;2023-02-13T07:34:53;3.40;99.90
26408;DHT22;14583;43.604;1.364;2023-02-13T07:37:19;3.30;99.90
26408;DHT22;14583;43.604;1.364;2023-02-13T07:39:45;3.40;99.90
26408;DHT22;14583;43.604;1.364;2023-02-13T07:42:10;3.60;99.90
26408;DHT22;14583;43.604;1.364;2023-02-13T07:44:36;3.50;99.90
26408;DHT22;14583;43.604;1.364;2023-02-13T07:47:01;3.40;99.90
26408;DHT22;14583;43.604;1.364;2023-02-13T07:49:27;3.30;99.90
26408;DHT22;14583;43.604;1.364;2023-02-13T07:51:55;3.40;99.90
26408;DHT22;14583;43.604;1.364;2023-02-13T07:54:21;3.30;99.90
26408;DHT22;14583;43.604;1.364;2023-02-13T07:56:47;3.40;99.90
26408;DHT22;14583;43.604;1.364;2023-02-13T07:59:13;3.30;99.90
26408;DHT22;14583;43.604;1.364;2023-02-13T08:01:38;3.30;99.90
26408;DHT22;14583;43.604;1.364;2023-02-13T08:04:04;3.30;99.90
26408;DHT22;14583;43.604;1.364;2023-02-13T08:06:30;3.30;99.90
26408;DHT22;14583;43.604;1.364;2023-02-13T08:08:55;3.40;99.90
26408;DHT22;14583;43.604;1.364;2023-02-13T08:11:39;3.30;99.90
26408;DHT22;14583;43.604;1.364;2023-02-13T08:14:25;3.40;99.90
26408;DHT22;14583;43.604;1.364;2023-02-13T08:16:52;3.50;99.90
26408;DHT22;14583;43.604;1.364;2023-02-13T08:19:18;3.50;99.90
26408;DHT22;14583;43.604;1.364;2023-02-13T08:21:44;3.60;99.90
26408;DHT22;14583;43.604;1.364;2023-02-13T08:24:10;3.60;99.90
26408;DHT22;14583;43.604;1.364;2023-02-13T08:26:36;3.50;99.90
26408;DHT22;14583;43.604;1.364;2023-02-13T08:29:03;3.40;99.90
26408;DHT22;14583;43.604;1.364;2023-02-13T08:31:29;3.40;99.90
26408;DHT22;14583;43.604;1.364;2023-02-13T08:33:56;3.10;99.90
26408;DHT22;14583;43.604;1.364;2023-02-13T08:36:22;3.40;99.90
26408;DHT22;14583;43.604;1.364;2023-02-13T08:38:49;3.50;99.90
26408;DHT22;14583;43.604;1.364;2023-02-13T08:41:14;3.40;99.90
26408;DHT22;14583;43.604;1.364;2023-02-13T08:43:42;3.60;99.90
26408;DHT22;14583;43.604;1.364;2023-02-13T08:46:08;3.80;99.90
26408;DHT22;14583;43.604;1.364;2023-02-13T08:48:34;3.90;99.90
26408;DHT22;14583;43.604;1.364;2023-02-13T08:51:03;3.90;99.90
26408;DHT22;14583;43.604;1.364;2023-02-13T08:53:29;3.90;99.90
26408;DHT22;14583;43.604;1.364;2023-02-13T08:55:56;3.90;99.90
26408;DHT22;14583;43.604;1.364;2023-02-13T08:58:22;4.00;99.90
26408;DHT22;14583;43.604;1.364;2023-02-13T09:00:48;3.90;99.90
26408;DHT22;14583;43.604;1.364;2023-02-13T09:03:15;4.20;99.90
26408;DHT22;14583;43.604;1.364;2023-02-13T09:05:40;4.20;99.90
26408;DHT22;14583;43.604;1.364;2023-02-13T09:08:06;4.20;99.90
26408;DHT22;14583;43.604;1.364;2023-02-13T09:10:33;4.20;99.90
26408;DHT22;14583;43.604;1.364;2023-02-13T09:12:59;4.30;99.90
26408;DHT22;14583;43.604;1.364;2023-02-13T09:15:26;4.20;99.90
26408;DHT22;14583;43.604;1.364;2023-02-13T09:17:52;4.30;99.90
26408;DHT22;14583;43.604;1.364;2023-02-13T09:20:17;4.50;99.90
26408;DHT22;14583;43.604;1.364;2023-02-13T09:22:43;4.40;99.90
26408;DHT22;14583;43.604;1.364;2023-02-13T09:25:09;4.30;99.90
26408;DHT22;14583;43.604;1.364;2023-02-13T09:27:35;4.30;99.90
26408;DHT22;14583;43.604;1.364;2023-02-13T09:30:05;4.50;99.90
26408;DHT22;14583;43.604;1.364;2023-02-13T09:32:30;4.60;99.90
26408;DHT22;14583;43.604;1.364;2023-02-13T09:34:56;4.70;99.90
26408;DHT22;14583;43.604;1.364;2023-02-13T09:37:22;4.70;99.90
26408;DHT22;14583;43.604;1.364;2023-02-13T09:39:47;4.90;99.90
26408;DHT22;14583;43.604;1.364;2023-02-13T09:42:33;5.00;99.90
26408;DHT22;14583;43.604;1.364;2023-02-13T09:45:03;5.20;99.90
26408;DHT22;14583;43.604;1.364;2023-02-13T09:47:36;5.30;99.90
26408;DHT22;14583;43.604;1.364;2023-02-13T09:52:33;5.50;99.90
26408;DHT22;14583;43.604;1.364;2023-02-13T09:55:00;5.40;99.90
26408;DHT22;14583;43.604;1.364;2023-02-13T09:57:32;5.50;99.90
26408;DHT22;14583;43.604;1.364;2023-02-13T10:00:23;5.60;99.90
26408;DHT22;14583;43.604;1.364;2023-02-13T10:14:51;6.30;99.90
26408;DHT22;14583;43.604;1.364;2023-02-13T10:19:57;6.70;99.90
26408;DHT22;14583;43.604;1.364;2023-02-13T10:22:34;6.80;99.90
26408;DHT22;14583;43.604;1.364;2023-02-13T10:25:07;7.00;99.90
26408;DHT22;14583;43.604;1.364;2023-02-13T10:27:39;7.10;99.90
26408;DHT22;14583;43.604;1.364;2023-02-13T10:35:36;7.90;99.90
26408;DHT22;14583;43.604;1.364;2023-02-13T10:38:17;8.40;99.90
26408;DHT22;14583;43.604;1.364;2023-02-13T10:40:58;8.80;99.90
26408;DHT22;14583;43.604;1.364;2023-02-13T10:43:29;9.20;99.90
26408;DHT22;14583;43.604;1.364;2023-02-13T10:51:34;9.60;99.90
26408;DHT22;14583;43.604;1.364;2023-02-13T11:01:54;9.70;99.90
26408;DHT22;14583;43.604;1.364;2023-02-13T11:04:21;9.80;99.90
26408;DHT22;14583;43.604;1.364;2023-02-13T11:07:10;10.10;99.90
26408;DHT22;14583;43.604;1.364;2023-02-13T11:09:40;10.20;99.90
26408;DHT22;14583;43.604;1.364;2023-02-13T11:12:33;10.20;99.90
26408;DHT22;14583;43.604;1.364;2023-02-13T11:15:01;10.40;99.90
26408;DHT22;14583;43.604;1.364;2023-02-13T11:17:30;10.40;99.90
26408;DHT22;14583;43.604;1.364;2023-02-13T11:19:59;10.40;99.90
26408;DHT22;14583;43.604;1.364;2023-02-13T11:22:34;10.40;99.90
26408;DHT22;14583;43.604;1.364;2023-02-13T11:25:19;10.60;99.90
26408;DHT22;14583;43.604;1.364;2023-02-13T11:27:47;10.70;99.90
26408;DHT22;14583;43.604;1.364;2023-02-13T11:33:00;10.80;99.90
26408;DHT22;14583;43.604;1.364;2023-02-13T11:35:28;10.80;99.90
26408;DHT22;14583;43.604;1.364;2023-02-13T11:40:45;10.90;99.90
26408;DHT22;14583;43.604;1.364;2023-02-13T11:48:30;11.20;99.90
26408;DHT22;14583;43.604;1.364;2023-02-13T11:50:56;11.30;99.90
26408;DHT22;14583;43.604;1.364;2023-02-13T11:53:26;11.20;99.90
26408;DHT22;14583;43.604;1.364;2023-02-13T11:56:13;11.20;99.90
26408;DHT22;14583;43.604;1.364;2023-02-13T11:58:39;11.20;99.90
26408;DHT22;14583;43.604;1.364;2023-02-13T12:01:35;11.30;99.90
26408;DHT22;14583;43.604;1.364;2023-02-13T12:04:12;11.50;99.90
26408;DHT22;14583;43.604;1.364;2023-02-13T12:07:00;11.50;99.90
26408;DHT22;14583;43.604;1.364;2023-02-13T12:09:27;11.40;99.90
26408;DHT22;14583;43.604;1.364;2023-02-13T12:11:55;11.40;99.90
26408;DHT22;14583;43.604;1.364;2023-02-13T12:14:25;11.40;99.90
26408;DHT22;14583;43.604;1.364;2023-02-13T12:19:43;11.60;99.90
26408;DHT22;14583;43.604;1.364;2023-02-13T12:22:31;11.90;99.90
26408;DHT22;14583;43.604;1.364;2023-02-13T12:30:51;11.70;99.90
26408;DHT22;14583;43.604;1.364;2023-02-13T12:39:02;12.00;99.90
26408;DHT22;14583;43.604;1.364;2023-02-13T12:41:35;12.00;99.90
26408;DHT22;14583;43.604;1.364;2023-02-13T12:52:56;12.00;99.90
26408;DHT22;14583;43.604;1.364;2023-02-13T13:23:43;12.70;99.90
26408;DHT22;14583;43.604;1.364;2023-02-13T13:26:23;12.80;99.90
26408;DHT22;14583;43.604;1.364;2023-02-13T13:28:54;12.70;99.90
26408;DHT22;14583;43.604;1.364;2023-02-13T13:31:23;12.70;99.90
26408;DHT22;14583;43.604;1.364;2023-02-13T13:33:50;12.80;99.90
26408;DHT22;14583;43.604;1.364;2023-02-13T13:41:59;13.00;99.90
26408;DHT22;14583;43.604;1.364;2023-02-13T13:49:56;13.20;99.90
26408;DHT22;14583;43.604;1.364;2023-02-13T13:52:29;13.20;99.90
26408;DHT22;14583;43.604;1.364;2023-02-13T13:54:57;13.30;99.90
26408;DHT22;14583;43.604;1.364;2023-02-13T13:57:26;13.30;99.90
26408;DHT22;14583;43.604;1.364;2023-02-13T14:07:40;13.60;99.90
26408;DHT22;14583;43.604;1.364;2023-02-13T14:25:48;14.00;99.90
26408;DHT22;14583;43.604;1.364;2023-02-13T14:28:21;14.00;99.90
26408;DHT22;14583;43.604;1.364;2023-02-13T14:30:49;14.00;99.70
26408;DHT22;14583;43.604;1.364;2023-02-13T14:33:27;14.10;99.40
26408;DHT22;14583;43.604;1.364;2023-02-13T14:36:05;14.10;99.80
26408;DHT22;14583;43.604;1.364;2023-02-13T14:38:33;14.20;99.90
26408;DHT22;14583;43.604;1.364;2023-02-13T14:40:59;14.40;99.20
26408;DHT22;14583;43.604;1.364;2023-02-13T14:43:48;14.30;99.10
26408;DHT22;14583;43.604;1.364;2023-02-13T14:46:22;14.40;97.60
26408;DHT22;14583;43.604;1.364;2023-02-13T14:51:45;14.50;97.50
26408;DHT22;14583;43.604;1.364;2023-02-13T14:54:32;14.50;97.60
26408;DHT22;14583;43.604;1.364;2023-02-13T14:57:18;14.60;98.10
26408;DHT22;14583;43.604;1.364;2023-02-13T15:00:37;14.80;97.90
26408;DHT22;14583;43.604;1.364;2023-02-13T15:02:41;14.70;97.60
26408;DHT22;14583;43.604;1.364;2023-02-13T15:05:13;14.80;97.10
26408;DHT22;14583;43.604;1.364;2023-02-13T15:07:51;15.00;96.90
26408;DHT22;14583;43.604;1.364;2023-02-13T15:10:48;15.00;97.30
26408;DHT22;14583;43.604;1.364;2023-02-13T15:13:26;14.70;96.20
26408;DHT22;14583;43.604;1.364;2023-02-13T15:16:09;15.10;96.70
26408;DHT22;14583;43.604;1.364;2023-02-13T15:18:48;15.60;96.40
26408;DHT22;14583;43.604;1.364;2023-02-13T15:21:19;18.80;96.20
26408;DHT22;14583;43.604;1.364;2023-02-13T15:23:49;23.40;87.40
26408;DHT22;14583;43.604;1.364;2023-02-13T15:26:22;27.10;78.60
26408;DHT22;14583;43.604;1.364;2023-02-13T15:29:14;29.20;67.10
26408;DHT22;14583;43.604;1.364;2023-02-13T15:31:40;28.30;61.10
26408;DHT22;14583;43.604;1.364;2023-02-13T15:34:44;28.40;59.50
26408;DHT22;14583;43.604;1.364;2023-02-13T15:37:20;28.90;58.20
26408;DHT22;14583;43.604;1.364;2023-02-13T15:39:46;30.40;57.90
26408;DHT22;14583;43.604;1.364;2023-02-13T15:42:11;30.00;55.60
26408;DHT22;14583;43.604;1.364;2023-02-13T15:44:38;29.10;56.50
26408;DHT22;14583;43.604;1.364;2023-02-13T15:47:25;30.80;56.10
26408;DHT22;14583;43.604;1.364;2023-02-13T15:49:51;31.00;54.90
26408;DHT22;14583;43.604;1.364;2023-02-13T15:52:22;31.20;52.90
26408;DHT22;14583;43.604;1.364;2023-02-13T15:54:52;30.40;55.00
26408;DHT22;14583;43.604;1.364;2023-02-13T15:57:19;31.10;52.60
26408;DHT22;14583;43.604;1.364;2023-02-13T15:59:45;30.20;52.80
26408;DHT22;14583;43.604;1.364;2023-02-13T16:02:15;30.50;53.10
26408;DHT22;14583;43.604;1.364;2023-02-13T16:04:42;29.00;52.80
26408;DHT22;14583;43.604;1.364;2023-02-13T16:07:11;29.20;53.00
26408;DHT22;14583;43.604;1.364;2023-02-13T16:09:37;28.60;54.20
26408;DHT22;14583;43.604;1.364;2023-02-13T16:12:15;26.60;55.40
26408;DHT22;14583;43.604;1.364;2023-02-13T16:15:03;25.90;57.10
26408;DHT22;14583;43.604;1.364;2023-02-13T16:17:32;26.40;56.30
26408;DHT22;14583;43.604;1.364;2023-02-13T16:20:01;25.20;57.80
26408;DHT22;14583;43.604;1.364;2023-02-13T16:22:35;24.40;57.70
26408;DHT22;14583;43.604;1.364;2023-02-13T16:27:48;22.60;61.70
26408;DHT22;14583;43.604;1.364;2023-02-13T16:32:47;22.70;59.70
26408;DHT22;14583;43.604;1.364;2023-02-13T16:35:30;20.50;62.40
26408;DHT22;14583;43.604;1.364;2023-02-13T16:37:59;19.80;66.00
26408;DHT22;14583;43.604;1.364;2023-02-13T16:40:33;19.40;66.60
26408;DHT22;14583;43.604;1.364;2023-02-13T16:48:41;18.20;69.70
26408;DHT22;14583;43.604;1.364;2023-02-13T16:51:08;17.60;71.30
26408;DHT22;14583;43.604;1.364;2023-02-13T16:53:34;16.50;73.80
26408;DHT22;14583;43.604;1.364;2023-02-13T16:56:03;16.00;75.70
26408;DHT22;14583;43.604;1.364;2023-02-13T16:58:30;15.10;77.90
26408;DHT22;14583;43.604;1.364;2023-02-13T17:00:56;14.60;80.20
26408;DHT22;14583;43.604;1.364;2023-02-13T17:03:22;14.10;81.90
26408;DHT22;14583;43.604;1.364;2023-02-13T17:05:47;13.80;83.40
26408;DHT22;14583;43.604;1.364;2023-02-13T17:08:13;13.70;84.70
26408;DHT22;14583;43.604;1.364;2023-02-13T17:10:39;13.50;85.50
26408;DHT22;14583;43.604;1.364;2023-02-13T17:15:42;12.90;87.80
26408;DHT22;14583;43.604;1.364;2023-02-13T17:18:08;12.50;90.00
26408;DHT22;14583;43.604;1.364;2023-02-13T17:20:35;12.30;90.50
26408;DHT22;14583;43.604;1.364;2023-02-13T17:23:03;12.20;91.00
26408;DHT22;14583;43.604;1.364;2023-02-13T17:25:35;12.20;91.10
26408;DHT22;14583;43.604;1.364;2023-02-13T17:28:13;12.00;91.60
26408;DHT22;14583;43.604;1.364;2023-02-13T17:30:40;11.90;92.00
26408;DHT22;14583;43.604;1.364;2023-02-13T17:33:11;11.70;92.50
26408;DHT22;14583;43.604;1.364;2023-02-13T17:35:37;11.60;93.00
26408;DHT22;14583;43.604;1.364;2023-02-13T17:38:03;11.60;93.20
26408;DHT22;14583;43.604;1.364;2023-02-13T17:40:30;11.50;93.80
26408;DHT22;14583;43.604;1.364;2023-02-13T17:42:57;11.30;94.40
26408;DHT22;14583;43.604;1.364;2023-02-13T17:45:26;11.30;94.70
26408;DHT22;14583;43.604;1.364;2023-02-13T17:47:52;11.20;95.20
26408;DHT22;14583;43.604;1.364;2023-02-13T17:50:18;11.00;95.80
26408;DHT22;14583;43.604;1.364;2023-02-13T17:52:45;11.00;96.40
26408;DHT22;14583;43.604;1.364;2023-02-13T17:55:24;10.90;96.80
26408;DHT22;14583;43.604;1.364;2023-02-13T17:57:50;10.90;97.20
26408;DHT22;14583;43.604;1.364;2023-02-13T18:00:18;10.90;97.50
26408;DHT22;14583;43.604;1.364;2023-02-13T18:02:44;10.80;97.90
26408;DHT22;14583;43.604;1.364;2023-02-13T18:05:13;10.70;98.70
26408;DHT22;14583;43.604;1.364;2023-02-13T18:07:39;10.60;99.30
26408;DHT22;14583;43.604;1.364;2023-02-13T18:10:11;10.60;99.60
26408;DHT22;14583;43.604;1.364;2023-02-13T18:12:38;10.60;99.90
26408;DHT22;14583;43.604;1.364;2023-02-13T18:15:04;10.50;99.90
26408;DHT22;14583;43.604;1.364;2023-02-13T18:17:30;10.40;99.90
26408;DHT22;14583;43.604;1.364;2023-02-13T18:19:56;10.30;99.90
26408;DHT22;14583;43.604;1.364;2023-02-13T18:22:22;10.30;99.90
26408;DHT22;14583;43.604;1.364;2023-02-13T18:24:49;10.20;99.90
26408;DHT22;14583;43.604;1.364;2023-02-13T18:27:15;10.20;99.90
26408;DHT22;14583;43.604;1.364;2023-02-13T18:29:40;10.20;99.90
26408;DHT22;14583;43.604;1.364;2023-02-13T18:32:07;10.10;99.90
26408;DHT22;14583;43.604;1.364;2023-02-13T18:34:34;10.00;99.90
26408;DHT22;14583;43.604;1.364;2023-02-13T18:37:00;10.10;99.90
26408;DHT22;14583;43.604;1.364;2023-02-13T18:39:26;10.10;99.90
26408;DHT22;14583;43.604;1.364;2023-02-13T18:41:52;10.00;99.90
26408;DHT22;14583;43.604;1.364;2023-02-13T18:44:17;10.00;99.90
26408;DHT22;14583;43.604;1.364;2023-02-13T18:46:43;10.00;99.90
26408;DHT22;14583;43.604;1.364;2023-02-13T18:49:10;10.00;99.90
26408;DHT22;14583;43.604;1.364;2023-02-13T18:51:37;9.90;99.90
26408;DHT22;14583;43.604;1.364;2023-02-13T18:54:04;10.00;99.90
26408;DHT22;14583;43.604;1.364;2023-02-13T18:56:29;9.80;99.90
26408;DHT22;14583;43.604;1.364;2023-02-13T18:58:55;9.80;99.90
26408;DHT22;14583;43.604;1.364;2023-02-13T19:01:21;9.80;99.90
26408;DHT22;14583;43.604;1.364;2023-02-13T19:03:49;9.70;99.90
26408;DHT22;14583;43.604;1.364;2023-02-13T19:06:20;9.70;99.90
26408;DHT22;14583;43.604;1.364;2023-02-13T19:08:46;9.70;99.90
26408;DHT22;14583;43.604;1.364;2023-02-13T19:11:15;9.60;99.90
26408;DHT22;14583;43.604;1.364;2023-02-13T19:13:42;9.50;99.90
26408;DHT22;14583;43.604;1.364;2023-02-13T19:16:14;9.50;99.90